createdAt,value
2023-01-23T00:00:13.690Z,76.83
2023-01-23T00:05:14.907Z,76.72
2023-01-23T00:10:16.124Z,77.83
2023-01-23T00:15:17.374Z,77.72
2023-01-23T00:20:18.934Z,78.18
2023-01-23T00:25:20.324Z,77.82
2023-01-23T00:30:21.680Z,77.67
2023-01-23T00:35:22.983Z,76.81
2023-01-23T00:40:24.211Z,77.32
2023-01-23T00:45:25.439Z,76.19
2023-01-23T00:50:26.641Z,75.76
2023-01-23T00:55:27.923Z,73.35
2023-01-23T01:00:29.172Z,73.85
2023-01-23T01:05:30.456Z,74.64
2023-01-23T01:10:32.880Z,73.19
2023-01-23T01:15:34.175Z,73.94
2023-01-23T01:20:35.391Z,73.73
2023-01-23T01:25:36.597Z,72.41
2023-01-23T01:30:38.093Z,72.74
2023-01-23T01:35:39.418Z,73.23
2023-01-23T01:40:40.910Z,72.30
2023-01-23T01:45:42.173Z,71.42
2023-01-23T01:50:43.484Z,72.62
2023-01-23T01:55:44.701Z,71.55
2023-01-23T02:00:46.044Z,72.01
2023-01-23T02:05:47.365Z,72.07
2023-01-23T02:10:48.623Z,73.54
2023-01-23T02:15:50.002Z,75.03
2023-01-23T02:20:51.269Z,75.15
2023-01-23T02:25:53.459Z,74.83
2023-01-23T02:30:54.816Z,74.11
2023-01-23T02:35:56.187Z,73.97
2023-01-23T02:40:57.483Z,73.85
2023-01-23T02:45:58.746Z,72.57
2023-01-23T02:51:00.060Z,73.57
2023-01-23T02:56:01.342Z,73.58
2023-01-23T03:01:02.630Z,74.17
2023-01-23T03:06:04.160Z,74.06
2023-01-23T03:11:05.358Z,73.98
2023-01-23T03:16:06.917Z,75.18
2023-01-23T03:21:08.383Z,74.20
2023-01-23T03:26:09.636Z,74.56
2023-01-23T03:31:11.269Z,74.76
2023-01-23T03:36:13.128Z,73.96
2023-01-23T03:41:26.695Z,73.47
2023-01-23T03:46:27.968Z,74.86
2023-01-23T03:51:29.228Z,75.32
2023-01-23T03:56:30.516Z,75.41
2023-01-23T04:01:31.805Z,76.53
2023-01-23T04:06:33.074Z,76.28
2023-01-23T04:11:34.295Z,76.48
2023-01-23T04:16:35.610Z,74.72
2023-01-23T04:21:36.946Z,74.43
2023-01-23T04:26:38.249Z,75.55
2023-01-23T04:31:39.555Z,77.13
2023-01-23T04:36:40.831Z,77.70
2023-01-23T04:41:42.030Z,77.77
2023-01-23T04:46:43.234Z,77.03
2023-01-23T04:51:45.695Z,76.15
2023-01-23T04:56:46.909Z,75.95
2023-01-23T05:01:48.133Z,75.03
2023-01-23T05:06:49.367Z,74.40
2023-01-23T05:11:50.591Z,74.33
2023-01-23T05:16:51.823Z,73.67
2023-01-23T05:21:53.106Z,73.45
2023-01-23T05:26:54.355Z,73.90
2023-01-23T05:31:55.672Z,73.86
2023-01-23T05:36:56.889Z,73.85
2023-01-23T05:41:58.099Z,74.10
2023-01-23T05:46:59.340Z,73.75
2023-01-23T05:52:00.557Z,73.28
2023-01-23T05:57:01.805Z,73.51
2023-01-23T06:02:03.148Z,73.09
2023-01-23T06:07:04.420Z,73.89
2023-01-23T06:12:05.673Z,74.46
2023-01-23T06:17:06.979Z,74.64
2023-01-23T06:22:08.240Z,75.70
2023-01-23T06:27:09.451Z,76.42
2023-01-23T06:32:10.714Z,76.61
2023-01-23T06:37:12.078Z,77.46
2023-01-23T06:42:13.368Z,77.85
2023-01-23T06:47:15.689Z,78.00
2023-01-23T06:52:17.057Z,77.54
2023-01-23T06:57:18.400Z,77.47
2023-01-23T07:02:19.674Z,77.65
2023-01-23T07:07:21.002Z,77.31
2023-01-23T07:12:22.451Z,76.49
2023-01-23T07:17:23.793Z,76.55
2023-01-23T07:22:25.124Z,76.60
2023-01-23T07:27:26.406Z,76.02
2023-01-23T07:32:27.629Z,75.66
2023-01-23T07:37:29.059Z,75.72
2023-01-23T07:42:30.433Z,75.64
2023-01-23T07:47:31.802Z,75.48
2023-01-23T07:52:33.299Z,75.77
2023-01-23T07:57:34.557Z,75.61
2023-01-23T08:02:35.883Z,75.90
2023-01-23T08:07:37.137Z,75.79
2023-01-23T08:12:38.395Z,76.05
2023-01-23T08:17:39.646Z,75.23
2023-01-23T08:22:41.211Z,75.04
2023-01-23T08:27:42.767Z,75.00
2023-01-23T08:32:44.113Z,75.09
2023-01-23T08:37:45.562Z,74.58
2023-01-23T08:42:46.854Z,74.88
2023-01-23T08:47:48.520Z,74.86
2023-01-23T08:52:50.117Z,75.32
2023-01-23T08:57:51.490Z,74.92
2023-01-23T09:02:52.909Z,75.04
2023-01-23T09:07:54.261Z,75.25
2023-01-23T09:12:55.696Z,75.20
2023-01-23T09:17:56.972Z,75.41
2023-01-23T09:22:58.341Z,75.49
2023-01-23T09:27:59.608Z,75.53
2023-01-23T09:33:00.871Z,75.32
2023-01-23T09:38:02.774Z,75.52
2023-01-23T09:43:04.525Z,75.38
2023-01-23T09:48:05.976Z,75.80
2023-01-23T09:53:07.300Z,75.66
2023-01-23T09:58:08.733Z,76.05
2023-01-23T10:03:10.032Z,76.48
2023-01-23T10:08:11.528Z,75.87
2023-01-23T10:13:14.921Z,76.13
2023-01-23T10:18:17.710Z,76.35
2023-01-23T10:23:19.039Z,75.28
2023-01-23T10:28:20.526Z,75.76
2023-01-23T10:33:21.842Z,74.94
2023-01-23T10:38:23.100Z,74.89
2023-01-23T10:43:24.497Z,74.76
2023-01-23T10:48:25.804Z,74.32
2023-01-23T10:53:27.212Z,74.17
2023-01-23T10:58:29.013Z,73.18
2023-01-23T11:03:30.510Z,72.93
2023-01-23T11:08:31.824Z,72.71
2023-01-23T11:13:33.101Z,73.82
2023-01-23T11:18:34.573Z,74.55
2023-01-23T11:23:35.949Z,73.78
2023-01-23T11:28:37.456Z,74.62
2023-01-23T11:33:39.092Z,74.88
2023-01-23T11:38:51.420Z,75.99
2023-01-23T11:43:53.698Z,74.81
2023-01-23T11:48:55.017Z,75.04
2023-01-23T11:53:56.316Z,73.88
2023-01-23T11:58:57.598Z,73.53
2023-01-23T12:03:58.949Z,74.38
2023-01-23T12:09:00.382Z,75.06
2023-01-23T12:14:01.664Z,75.06
2023-01-23T12:19:02.940Z,74.37
2023-01-23T12:24:04.209Z,74.74
2023-01-23T12:29:05.571Z,74.93
2023-01-23T12:34:06.866Z,74.82
2023-01-23T12:39:08.204Z,74.81
2023-01-23T12:44:09.465Z,74.74
2023-01-23T12:49:10.823Z,74.24
2023-01-23T12:54:12.121Z,74.74
2023-01-23T12:59:15.243Z,74.03
2023-01-23T13:04:16.604Z,73.84
2023-01-23T13:09:18.954Z,73.15
2023-01-23T13:14:20.639Z,73.40
2023-01-23T13:19:40.474Z,74.07
2023-01-23T13:25:00.515Z,73.74
2023-01-23T13:30:02.527Z,74.18
2023-01-23T13:35:03.797Z,74.43
2023-01-23T13:40:06.771Z,74.13
2023-01-23T13:45:09.322Z,73.60
2023-01-23T14:22:22.071Z,72.71
2023-01-23T14:27:28.895Z,73.19
2023-01-23T14:32:31.550Z,73.01
2023-01-23T14:37:32.759Z,72.80
2023-01-23T14:42:34.809Z,73.07
2023-01-23T14:47:37.795Z,71.90
2023-01-23T14:52:39.170Z,71.36
2023-01-23T14:57:40.514Z,71.80
2023-01-23T15:02:42.667Z,72.05
2023-01-23T15:07:44.661Z,72.58
2023-01-23T15:12:45.918Z,72.95
2023-01-23T15:17:47.158Z,74.05
2023-01-23T15:22:48.399Z,73.12
2023-01-23T15:27:49.606Z,73.34
2023-01-23T15:32:51.087Z,74.04
2023-01-23T15:37:55.985Z,74.02
2023-01-23T15:42:57.296Z,73.84
2023-01-23T15:47:58.613Z,74.94
2023-01-23T15:52:59.896Z,75.50
2023-01-23T15:58:02.920Z,75.26
2023-01-23T16:03:04.319Z,74.63
2023-01-23T16:08:05.730Z,74.84
2023-01-23T16:13:07.821Z,74.85
2023-01-23T16:18:09.142Z,75.04
2023-01-23T16:23:15.160Z,75.04
2023-01-23T16:28:16.754Z,75.21
2023-01-23T16:33:17.979Z,75.29
2023-01-23T16:38:19.697Z,75.56
2023-01-23T16:43:20.966Z,75.08
2023-01-23T16:48:27.247Z,75.00
2023-01-23T16:53:29.408Z,75.72
2023-01-23T16:58:30.939Z,75.52
2023-01-23T17:03:32.288Z,75.13
2023-01-23T17:08:33.523Z,75.43
2023-01-23T17:13:36.150Z,75.86
2023-01-23T17:18:37.670Z,75.67
2023-01-23T17:23:38.907Z,76.23
2023-01-23T17:28:40.303Z,75.86
2023-01-23T17:33:41.610Z,76.59
2023-01-23T17:38:42.893Z,76.61
2023-01-23T17:43:44.789Z,76.80
2023-01-23T17:48:46.060Z,76.89
2023-01-23T17:53:47.425Z,76.34
2023-01-23T17:58:48.761Z,77.65
2023-01-23T18:03:50.409Z,77.93
2023-01-23T18:08:51.630Z,77.03
2023-01-23T18:13:52.869Z,76.98
2023-01-23T18:18:54.163Z,77.06
2023-01-23T18:23:55.789Z,77.40
2023-01-23T18:28:57.104Z,77.18
2023-01-23T18:33:58.363Z,77.15
2023-01-23T18:38:59.595Z,77.72
2023-01-23T18:44:00.845Z,77.81
2023-01-23T18:49:02.107Z,77.44
2023-01-23T18:54:03.374Z,77.77
2023-01-23T18:59:11.596Z,78.08
2023-01-23T19:04:13.793Z,78.32
2023-01-23T19:09:15.094Z,78.49
2023-01-23T19:14:16.358Z,78.51
2023-01-23T19:19:19.085Z,78.23
2023-01-23T19:24:21.340Z,78.42
2023-01-23T19:29:23.347Z,78.53
2023-01-23T19:34:24.688Z,79.21
2023-01-23T19:39:25.933Z,79.96
2023-01-23T19:44:28.923Z,79.67
2023-01-23T19:49:30.290Z,79.33
2023-01-23T19:54:31.556Z,79.30
2023-01-23T19:59:32.788Z,79.41
2023-01-23T20:04:34.266Z,79.53
2023-01-23T20:09:35.509Z,78.84
2023-01-23T20:14:36.734Z,78.34
2023-01-23T20:19:38.376Z,77.96
2023-01-23T20:24:39.574Z,78.42
2023-01-23T20:29:40.783Z,78.85
2023-01-23T20:34:42.051Z,78.62
2023-01-23T20:39:43.297Z,78.72
2023-01-23T20:44:44.572Z,78.87
2023-01-23T20:49:45.911Z,78.73
2023-01-23T20:54:48.236Z,78.78
2023-01-23T20:59:49.673Z,77.96
2023-01-23T21:04:50.938Z,77.68
2023-01-23T21:09:52.210Z,77.38
2023-01-23T21:14:53.451Z,77.06
2023-01-23T21:19:54.717Z,77.36
2023-01-23T21:24:55.959Z,77.47
2023-01-23T21:29:57.271Z,77.10
2023-01-23T21:34:58.701Z,76.81
2023-01-23T21:39:59.937Z,76.08
2023-01-23T21:45:01.199Z,76.48
2023-01-23T21:50:02.412Z,77.12
2023-01-23T21:55:03.700Z,77.70
2023-01-23T22:00:23.775Z,78.44
2023-01-23T22:05:25.030Z,78.00
2023-01-23T22:10:26.321Z,78.71
2023-01-23T22:15:27.625Z,79.28
2023-01-23T22:20:28.999Z,79.45
2023-01-23T22:25:30.275Z,78.23
2023-01-23T22:30:31.570Z,78.23
2023-01-23T22:35:32.772Z,77.16
2023-01-23T22:40:34.139Z,76.29
2023-01-23T22:45:35.429Z,76.79
2023-01-23T22:50:36.639Z,76.85
2023-01-23T22:55:37.845Z,75.98
2023-01-23T23:00:39.046Z,76.41
2023-01-23T23:05:40.312Z,77.08
2023-01-23T23:10:41.545Z,77.18
2023-01-23T23:15:42.754Z,77.27
2023-01-23T23:20:43.996Z,77.15
2023-01-23T23:31:17.880Z,77.57
2023-01-23T23:36:19.236Z,77.32
2023-01-23T23:41:20.591Z,76.59
2023-01-23T23:46:21.796Z,76.75
2023-01-23T23:51:23.128Z,76.65
2023-01-23T23:56:24.434Z,76.25
